Beacon Sw Bulker — 3EMX3 — position and weather

sailwx.info

Track history (hours):
 
Tides and Currents Weather Stations Pressure Air Temp Water Temp Dewpoint Dewpoint Depression Visibility Wind Speed Wind Dir Waves Ship Positions

Beacon Sw Bulker

Last reported at 2018-May-24 03:51 UTC. Time now 2018-Jun-22 07:31 UTC.
Position N 33°03' E 124°52'.
Warning: this ship's position is 29 days out of date.

Length 295 m; draft 11.5 m.

Type: Ship (hazmat cat D). MMSI: 370895000.

Date/timePositionNaut miles runAvg speedWind from/ knotsBaromVisibWave heightAir tempDewpointWater temp
2018-May-24 03:51N 33°03' E 124°52'717.6
2018-May-24 03:28N 32°57' E 124°52'4016.8
2018-May-24 01:04N 32°16' E 124°55'217.7
2018-May-24 00:59N 32°15' E 124°55'817.8
2018-May-24 00:30N 32°06' E 124°55'1018.2
2018-May-23 23:58N 31°57' E 124°54'918.1
2018-May-23 23:30N 31°48' E 124°54'1617.7
2018-May-23 22:36N 31°32' E 124°55'217.6
2018-May-23 22:30N 31°31' E 124°54'  
Track history (hours):
 
Tides and Currents Weather Stations Pressure Air Temp Water Temp Dewpoint Dewpoint Depression Visibility Wind Speed Wind Dir Waves Ship Positions

Beacon Sw Bulker

Last reported at 2018-May-24 03:51 UTC. Time now 2018-Jun-22 07:31 UTC.
Position N 33°03' E 124°52'.
Warning: this ship's position is 29 days out of date.

Length 295 m; draft 11.5 m.

Type: Ship (hazmat cat D). MMSI: 370895000.

Date/timePositionNaut miles runAvg speedWind from/ knotsBaromVisibWave heightAir tempDewpointWater temp
2018-May-24 03:51N 33°03' E 124°52'717.6
2018-May-24 03:28N 32°57' E 124°52'4016.8
2018-May-24 01:04N 32°16' E 124°55'217.7
2018-May-24 00:59N 32°15' E 124°55'817.8
2018-May-24 00:30N 32°06' E 124°55'1018.2
2018-May-23 23:58N 31°57' E 124°54'918.1
2018-May-23 23:30N 31°48' E 124°54'1617.7
2018-May-23 22:36N 31°32' E 124°55'217.6
2018-May-23 22:30N 31°31' E 124°54'  

Dump ship's entire track history